Smithfield - 24 Hour Table
Date & TimeSolar
Radiation
(W/m²)
Wind
Speed
(mph)
Wind
Direction
(degrees)
Air
Temperature
(°F)
Relative
Humidity
(%)
Precipitation
(inches)
Max
Wind
Speed
(mph)
2021/02/19 08:00 6 4.4 165 29.3 62 0.00 11.4
2021/02/19 07:00 0 5.0 176 30.2 59 0.00 11.7
2021/02/19 06:00 0 5.5 107 27.8 49 0.00 13.1
2021/02/19 05:00 0 3.8 40 26.0 67 0.00 10.6
2021/02/19 04:00 0 3.6 96 27.9 72 0.00 8.1
2021/02/19 03:00 0 3.5 118 27.7 59 0.00 6.3
2021/02/19 02:00 0 6.2 179 28.1 59 0.00 10.6
2021/02/19 01:00 0 3.7 103 25.4 53 0.00 10.6
2021/02/19 00:00 0 4.1 108 26.9 67 0.00 7.4
2021/02/18 23:00 0 3.8 143 27.1 63 0.00 7.8
2021/02/18 22:00 0 5.9 120 26.6 55 0.00 8.8
2021/02/18 21:00 0 6.0 115 26.0 56 0.00 8.8
2021/02/18 20:00 0 6.6 124 26.1 58 0.00 10.3
2021/02/18 19:00 0 5.9 123 26.0 61 0.00 9.2
2021/02/18 18:00 42 3.9 137 27.5 62 0.00 9.6
2021/02/18 17:00 188 3.0 125 29.3 56 0.00 5.6
2021/02/18 16:00 398 2.5 329 31.5 53 0.00 8.1
2021/02/18 15:00 476 3.1 8 29.8 54 0.00 7.4
2021/02/18 14:00 659 3.8 4 27.9 62 0.00 7.1
2021/02/18 13:00 586 3.3 271 27.0 65 0.00 7.8
2021/02/18 12:00 521 3.1 201 22.6 68 0.00 6.3
2021/02/18 11:00 307 3.0 79 18.0 74 0.00 8.8
2021/02/18 10:00 126 1.6 77 14.4 81 0.00 4.6
2021/02/18 09:00 47 2.5 21 12.9 87 0.00 6.7